createdAt,value
2022-10-23T00:00:48.845Z,1015.46
2022-10-23T00:05:49.997Z,1015.44
2022-10-23T00:10:51.189Z,1015.37
2022-10-23T00:20:53.401Z,1015.19
2022-10-23T00:25:55.531Z,1015.28
2022-10-23T00:30:54.776Z,1015.40
2022-10-23T00:35:59.833Z,1015.35
2022-10-23T00:40:56.977Z,1015.42
2022-10-23T00:45:58.048Z,1015.33
2022-10-23T00:50:59.253Z,1015.23
2022-10-23T00:56:00.407Z,1015.23
2022-10-23T01:01:01.637Z,1015.18
2022-10-23T01:06:02.858Z,1015.06
2022-10-23T01:11:03.965Z,1015.17
2022-10-23T01:16:06.057Z,1015.18
2022-10-23T01:21:05.147Z,1015.20
2022-10-23T01:26:07.233Z,1015.14
2022-10-23T01:31:06.331Z,1015.13
2022-10-23T01:36:07.475Z,1015.16
2022-10-23T01:41:10.589Z,1015.11
2022-10-23T01:46:09.789Z,1015.03
2022-10-23T01:51:12.046Z,1015.05
2022-10-23T01:56:11.137Z,1014.98
2022-10-23T02:01:12.321Z,1014.94
2022-10-23T02:06:13.686Z,1014.84
2022-10-23T02:11:14.847Z,1014.95
2022-10-23T02:16:16.019Z,1014.87
2022-10-23T02:21:17.107Z,1014.90
2022-10-23T02:26:18.196Z,1014.88
2022-10-23T02:31:19.392Z,1014.82
2022-10-23T02:36:20.533Z,1014.60
2022-10-23T02:41:22.656Z,1014.68
2022-10-23T02:46:22.781Z,1014.59
2022-10-23T02:51:22.898Z,1014.66
2022-10-23T02:56:21.999Z,1014.58
2022-10-23T03:01:24.470Z,1014.53
2022-10-23T03:06:23.648Z,1014.50
2022-10-23T03:11:24.764Z,1014.51
2022-10-23T03:16:26.889Z,1014.43
2022-10-23T03:21:27.075Z,1014.43
2022-10-23T03:26:26.236Z,1014.43
2022-10-23T03:31:27.340Z,1014.40
2022-10-23T03:36:28.458Z,1014.42
2022-10-23T03:41:29.570Z,1014.31
2022-10-23T03:46:30.775Z,1014.29
2022-10-23T03:51:31.908Z,1014.36
2022-10-23T03:56:33.006Z,1014.34
2022-10-23T04:01:34.406Z,1014.38
2022-10-23T04:06:36.713Z,1014.30
2022-10-23T04:11:35.823Z,1014.27
2022-10-23T04:16:37.147Z,1014.25
2022-10-23T04:21:39.233Z,1014.21
2022-10-23T04:26:38.459Z,1014.16
2022-10-23T04:31:39.691Z,1014.11
2022-10-23T04:36:40.965Z,1014.18
2022-10-23T04:41:42.139Z,1014.12
2022-10-23T04:46:44.222Z,1014.10
2022-10-23T04:51:43.373Z,1014.07
2022-10-23T04:56:44.469Z,1014.02
2022-10-23T05:01:47.666Z,1013.97
2022-10-23T05:06:46.786Z,1013.87
2022-10-23T05:11:52.797Z,1013.79
2022-10-23T05:16:48.005Z,1013.77
2022-10-23T05:21:49.152Z,1013.72
2022-10-23T05:26:51.247Z,1013.74
2022-10-23T05:31:51.335Z,1013.67
2022-10-23T05:36:50.515Z,1013.76
2022-10-23T05:41:51.897Z,1013.61
2022-10-23T05:46:53.984Z,1013.70
2022-10-23T05:51:53.179Z,1013.67
2022-10-23T05:56:55.311Z,1013.66
2022-10-23T06:01:54.670Z,1013.76
2022-10-23T06:06:56.875Z,1013.75
2022-10-23T06:11:56.047Z,1013.77
2022-10-23T06:16:57.222Z,1013.66
2022-10-23T06:21:58.382Z,1013.77
2022-10-23T06:27:00.483Z,1013.89
2022-10-23T06:31:59.629Z,1014.00
2022-10-23T06:37:01.761Z,1014.05
2022-10-23T06:42:00.876Z,1013.97
2022-10-23T06:47:03.008Z,1013.99
2022-10-23T06:52:02.320Z,1014.00
2022-10-23T06:57:03.441Z,1014.05
2022-10-23T07:02:03.732Z,1014.05
2022-10-23T07:07:04.844Z,1013.99
2022-10-23T07:12:05.938Z,1014.13
2022-10-23T07:17:07.101Z,1014.21
2022-10-23T07:22:10.763Z,1014.18
2022-10-23T07:27:08.236Z,1014.20
2022-10-23T07:32:08.372Z,1014.10
2022-10-23T07:37:10.457Z,1013.92
2022-10-23T07:42:09.551Z,1013.99
2022-10-23T07:47:10.816Z,1013.97
2022-10-23T07:52:11.938Z,1013.92
2022-10-23T07:57:13.187Z,1013.97
2022-10-23T08:02:14.382Z,1013.95
2022-10-23T08:07:15.715Z,1013.96
2022-10-23T08:12:18.815Z,1013.95
2022-10-23T08:17:18.925Z,1013.84
2022-10-23T08:22:18.086Z,1013.82
2022-10-23T08:27:20.176Z,1013.78
2022-10-23T08:32:19.367Z,1013.74
2022-10-23T08:37:21.465Z,1013.65
2022-10-23T08:42:21.752Z,1013.61
2022-10-23T08:47:20.922Z,1013.41
2022-10-23T08:52:23.056Z,1013.38
2022-10-23T08:57:22.281Z,1013.35
2022-10-23T09:02:23.460Z,1013.26
2022-10-23T09:07:24.755Z,1013.32
2022-10-23T09:12:25.857Z,1013.26
2022-10-23T09:17:27.087Z,1013.09
2022-10-23T09:22:28.341Z,1013.14
2022-10-23T09:27:29.556Z,1012.98
2022-10-23T09:32:30.776Z,1012.87
2022-10-23T09:37:31.986Z,1012.80
2022-10-23T09:42:38.338Z,1012.77
2022-10-23T09:47:33.553Z,1012.81
2022-10-23T09:52:34.705Z,1012.81
2022-10-23T09:57:35.871Z,1012.88
2022-10-23T10:02:37.004Z,1012.78
2022-10-23T10:07:38.186Z,1012.72
2022-10-23T10:12:39.261Z,1012.77
2022-10-23T10:17:40.439Z,1012.85
2022-10-23T10:22:42.680Z,1012.83
2022-10-23T10:27:42.046Z,1012.73
2022-10-23T10:32:42.335Z,1012.65
2022-10-23T10:37:43.922Z,1012.61
2022-10-23T10:42:41.321Z,1012.55
2022-10-23T10:47:42.767Z,1012.54
2022-10-23T10:52:45.408Z,1012.45
2022-10-23T10:57:43.494Z,1012.39
2022-10-23T11:02:42.947Z,1012.34
2022-10-23T11:07:45.465Z,1012.23
2022-10-23T11:12:45.770Z,1012.18
2022-10-23T11:17:45.369Z,1012.00
2022-10-23T11:22:45.079Z,1011.94
2022-10-23T11:27:44.845Z,1011.80
2022-10-23T11:32:45.226Z,1011.81
2022-10-23T11:37:44.540Z,1011.56
2022-10-23T11:42:44.332Z,1011.38
2022-10-23T11:47:43.731Z,1011.48
2022-10-23T11:52:50.809Z,1011.50
2022-10-23T11:57:45.007Z,1011.31
2022-10-23T12:02:46.695Z,1011.28
2022-10-23T12:07:47.251Z,1011.27
2022-10-23T12:12:46.583Z,1011.09
2022-10-23T12:17:48.692Z,1010.96
2022-10-23T12:22:48.792Z,1010.88
2022-10-23T12:27:48.085Z,1010.68
2022-10-23T12:32:49.208Z,1010.83
2022-10-23T12:37:50.302Z,1010.70
2022-10-23T12:42:52.689Z,1010.50
2022-10-23T12:47:52.138Z,1010.56
2022-10-23T12:52:51.387Z,1010.51
2022-10-23T12:57:52.563Z,1010.59
2022-10-23T13:02:53.659Z,1010.73
2022-10-23T13:07:54.908Z,1010.76
2022-10-23T13:12:56.151Z,1010.54
2022-10-23T13:17:58.423Z,1010.45
2022-10-23T13:23:00.367Z,1010.39
2022-10-23T13:27:58.036Z,1010.50
2022-10-23T13:32:59.375Z,1010.54
2022-10-23T13:37:59.615Z,1010.54
2022-10-23T13:43:01.694Z,1010.51
2022-10-23T13:48:00.878Z,1010.37
2022-10-23T13:53:02.143Z,1010.33
2022-10-23T13:58:04.316Z,1010.23
2022-10-23T14:03:03.585Z,1010.24
2022-10-23T14:08:04.987Z,1010.28
2022-10-23T14:13:07.104Z,1010.29
2022-10-23T14:18:08.372Z,1010.35
2022-10-23T14:23:08.697Z,1010.24
2022-10-23T14:28:08.095Z,1010.33
2022-10-23T14:33:10.411Z,1010.24
2022-10-23T14:38:09.843Z,1010.34
2022-10-23T14:43:11.114Z,1010.21
2022-10-23T14:48:14.447Z,1010.26
2022-10-23T14:53:13.671Z,1010.30
2022-10-23T14:58:14.952Z,1010.23
2022-10-23T15:03:17.225Z,1010.12
2022-10-23T15:08:16.644Z,1010.12
2022-10-23T15:13:15.813Z,1010.09
2022-10-23T15:18:16.953Z,1009.92
2022-10-23T15:23:18.108Z,1010.15
2022-10-23T15:28:19.298Z,1009.98
2022-10-23T15:33:21.541Z,1010.11
2022-10-23T15:38:21.762Z,1010.21
2022-10-23T15:43:21.019Z,1010.15
2022-10-23T15:48:22.375Z,1010.11
2022-10-23T15:53:23.630Z,1010.37
2022-10-23T15:58:24.819Z,1010.52
2022-10-23T16:03:27.120Z,1010.50
2022-10-23T16:08:27.447Z,1010.70
2022-10-23T16:13:27.835Z,1010.75
2022-10-23T16:18:27.067Z,1010.92
2022-10-23T16:23:28.316Z,1010.91
2022-10-23T16:28:29.508Z,1011.03
2022-10-23T16:33:30.863Z,1011.25
2022-10-23T16:38:32.271Z,1011.23
2022-10-23T16:43:33.728Z,1011.46
2022-10-23T16:48:33.043Z,1011.50
2022-10-23T16:53:34.548Z,1011.55
2022-10-23T16:58:34.954Z,1011.53
2022-10-23T17:03:34.351Z,1011.41
2022-10-23T17:08:36.528Z,1011.60
2022-10-23T17:13:35.746Z,1011.54
2022-10-23T17:18:39.909Z,1011.43
2022-10-23T17:23:38.267Z,1011.57
2022-10-23T17:28:38.708Z,1011.24
2022-10-23T17:33:39.182Z,1011.16
2022-10-23T17:38:37.358Z,1011.25
2022-10-23T17:43:40.696Z,1011.04
2022-10-23T17:48:40.075Z,1011.01
2022-10-23T17:53:42.506Z,1010.85
2022-10-23T17:58:42.923Z,1010.83
2022-10-23T18:03:42.460Z,1010.81
2022-10-23T18:08:42.694Z,1010.80
2022-10-23T18:13:42.261Z,1010.88
2022-10-23T18:18:41.860Z,1010.85
2022-10-23T18:23:42.362Z,1010.62
2022-10-23T18:28:42.858Z,1010.65
2022-10-23T18:33:43.347Z,1010.56
2022-10-23T18:38:42.987Z,1010.65
2022-10-23T18:43:44.083Z,1010.64
2022-10-23T18:48:42.078Z,1010.42
2022-10-23T18:53:42.576Z,1010.31
2022-10-23T18:58:42.021Z,1010.43
2022-10-23T19:03:41.529Z,1010.38
2022-10-23T19:08:40.977Z,1010.49
2022-10-23T19:13:43.464Z,1010.46
2022-10-23T19:18:42.956Z,1010.54
2022-10-23T19:23:42.394Z,1010.78
2022-10-23T19:28:49.690Z,1010.95
2022-10-23T19:33:45.335Z,1011.23
2022-10-23T19:38:44.757Z,1011.81
2022-10-23T19:43:45.350Z,1012.35
2022-10-23T19:48:47.545Z,1013.04
2022-10-23T19:53:46.937Z,1013.17
2022-10-23T19:58:46.352Z,1013.43
2022-10-23T20:03:47.803Z,1013.49
2022-10-23T20:08:48.322Z,1013.60
2022-10-23T20:13:48.303Z,1013.41
2022-10-23T20:18:48.036Z,1013.36
2022-10-23T20:23:53.063Z,1013.40
2022-10-23T20:28:48.601Z,1013.44
2022-10-23T20:33:47.886Z,1013.49
2022-10-23T20:38:49.036Z,1013.61
2022-10-23T20:43:50.255Z,1013.66
2022-10-23T20:48:52.817Z,1013.87
2022-10-23T20:53:52.277Z,1014.04
2022-10-23T20:58:51.464Z,1013.98
2022-10-23T21:03:52.751Z,1013.93
2022-10-23T21:08:53.897Z,1014.15
2022-10-23T21:13:55.264Z,1013.98
2022-10-23T21:18:56.391Z,1014.00
2022-10-23T21:23:57.605Z,1014.05
2022-10-23T21:29:17.938Z,1014.19
2022-10-23T21:33:59.708Z,1014.30
2022-10-23T21:39:02.824Z,1014.26
2022-10-23T21:44:01.920Z,1014.31
2022-10-23T21:49:04.025Z,1014.32
2022-10-23T21:54:03.112Z,1014.29
2022-10-23T21:59:04.270Z,1014.28
2022-10-23T22:04:05.409Z,1014.20
2022-10-23T22:09:06.502Z,1014.11
2022-10-23T22:14:07.593Z,1014.41
2022-10-23T22:19:08.782Z,1014.38
2022-10-23T22:24:10.896Z,1014.43
2022-10-23T22:29:14.087Z,1014.42
2022-10-23T22:34:25.115Z,1014.47
2022-10-23T22:39:11.184Z,1014.33
2022-10-23T22:44:13.483Z,1014.29
2022-10-23T22:49:15.628Z,1014.45
2022-10-23T22:54:12.791Z,1014.57
2022-10-23T22:59:14.194Z,1014.49
2022-10-23T23:04:36.768Z,1014.51
2022-10-23T23:09:18.245Z,1014.39
2022-10-23T23:14:20.310Z,1014.54
2022-10-23T23:19:17.433Z,1014.51
2022-10-23T23:24:18.620Z,1014.63
2022-10-23T23:29:19.858Z,1014.83
2022-10-23T23:34:22.960Z,1014.80
2022-10-23T23:39:22.166Z,1014.59
2022-10-23T23:44:24.299Z,1014.34
2022-10-23T23:49:23.394Z,1014.30
2022-10-23T23:54:24.811Z,1014.38
2022-10-23T23:59:26.057Z,1014.57
